createdAt,value
2023-12-03T00:01:15.090Z,99618.77
2023-12-03T00:04:01.737Z,99620.92
2023-12-03T00:06:31.871Z,99619.94
2023-12-03T00:09:03.417Z,99616.58
2023-12-03T00:11:32.561Z,99614.55
2023-12-03T00:14:02.528Z,99619.27
2023-12-03T00:16:35.126Z,99620.34
2023-12-03T00:19:06.765Z,99618.81
2023-12-03T00:21:39.498Z,99619.53
2023-12-03T00:24:09.698Z,99623.94
2023-12-03T00:26:40.108Z,99623.90
2023-12-03T00:29:15.297Z,99622.50
2023-12-03T00:31:46.259Z,99618.44
2023-12-03T00:34:20.201Z,99619.96
2023-12-03T00:36:49.532Z,99620.02
2023-12-03T00:39:18.519Z,99621.00
2023-12-03T00:41:50.281Z,99618.30
2023-12-03T00:44:20.231Z,99618.45
2023-12-03T00:46:50.447Z,99619.02
2023-12-03T00:49:23.040Z,99620.67
2023-12-03T00:51:53.222Z,99621.91
2023-12-03T00:54:22.944Z,99622.67
2023-12-03T00:56:55.055Z,99624.02
2023-12-03T00:59:26.135Z,99627.27
2023-12-03T01:01:56.177Z,99632.20
2023-12-03T01:04:27.956Z,99634.95
2023-12-03T01:06:58.069Z,99631.01
2023-12-03T01:09:34.993Z,99630.85
2023-12-03T01:12:05.555Z,99629.17
2023-12-03T01:14:34.639Z,99631.66
2023-12-03T01:17:05.029Z,99630.02
2023-12-03T01:19:34.069Z,99637.38
2023-12-03T01:22:05.522Z,99641.28
2023-12-03T01:24:35.824Z,99644.80
2023-12-03T01:27:06.951Z,99644.90
2023-12-03T01:29:38.250Z,99643.66
2023-12-03T01:32:11.128Z,99644.96
2023-12-03T01:34:41.729Z,99644.77
2023-12-03T01:37:14.825Z,99650.86
2023-12-03T01:39:44.242Z,99647.30
2023-12-03T01:42:19.943Z,99648.75
2023-12-03T01:44:53.221Z,99654.20
2023-12-03T01:47:23.728Z,99657.95
2023-12-03T01:49:56.649Z,99657.34
2023-12-03T01:52:27.835Z,99662.28
2023-12-03T01:55:01.136Z,99657.27
2023-12-03T01:57:33.923Z,99658.86
2023-12-03T02:00:06.064Z,99655.06
2023-12-03T02:02:43.193Z,99651.79
2023-12-03T02:05:15.124Z,99651.37
2023-12-03T02:07:46.649Z,99652.64
2023-12-03T02:10:21.238Z,99655.86
2023-12-03T02:12:50.455Z,99656.51
2023-12-03T02:15:19.377Z,99654.52
2023-12-03T02:17:53.374Z,99657.43
2023-12-03T02:20:27.202Z,99659.15
2023-12-03T02:23:01.250Z,99662.99
2023-12-03T02:25:32.629Z,99665.84
2023-12-03T02:28:03.253Z,99665.60
2023-12-03T02:30:33.230Z,99668.60
2023-12-03T02:33:04.484Z,99673.91
2023-12-03T02:35:35.906Z,99675.23
2023-12-03T02:38:07.056Z,99676.26
2023-12-03T02:40:39.280Z,99680.98
2023-12-03T02:43:09.769Z,99685.36
2023-12-03T02:45:39.184Z,99686.36
2023-12-03T02:48:12.590Z,99687.89
2023-12-03T02:50:41.749Z,99693.55
2023-12-03T02:53:12.904Z,99695.23
2023-12-03T02:55:44.228Z,99697.09
2023-12-03T02:58:14.447Z,99695.48
2023-12-03T03:00:46.230Z,99694.27
2023-12-03T03:03:19.277Z,99699.96
2023-12-03T03:05:50.209Z,99700.65
2023-12-03T03:08:21.087Z,99706.35
2023-12-03T03:10:51.746Z,99707.94
2023-12-03T03:13:22.282Z,99711.91
2023-12-03T03:15:53.272Z,99713.81
2023-12-03T03:18:23.765Z,99720.73
2023-12-03T03:20:57.639Z,99724.09
2023-12-03T03:23:29.504Z,99726.10
2023-12-03T03:26:00.135Z,99725.39
2023-12-03T03:28:29.809Z,99726.91
2023-12-03T03:31:02.379Z,99728.00
2023-12-03T03:33:33.158Z,99730.20
2023-12-03T03:36:03.051Z,99732.59
2023-12-03T03:38:34.489Z,99726.37
2023-12-03T03:41:03.940Z,99726.02
2023-12-03T03:43:34.618Z,99729.34
2023-12-03T03:46:04.579Z,99731.94
2023-12-03T03:48:39.757Z,99732.77
2023-12-03T03:51:10.196Z,99734.42
2023-12-03T03:53:39.412Z,99734.46
2023-12-03T03:56:10.799Z,99734.49
2023-12-03T03:58:40.150Z,99735.94
2023-12-03T04:01:12.705Z,99737.97
2023-12-03T04:03:45.203Z,99740.42
2023-12-03T04:06:14.355Z,99748.75
2023-12-03T04:08:47.805Z,99752.95
2023-12-03T04:11:20.121Z,99751.75
2023-12-03T04:13:51.217Z,99755.68
2023-12-03T04:16:24.273Z,99763.31
2023-12-03T04:18:54.529Z,99760.95
2023-12-03T04:21:28.882Z,99764.86
2023-12-03T04:23:58.940Z,99762.99
2023-12-03T04:26:29.165Z,99767.98
2023-12-03T04:28:58.555Z,99771.34
2023-12-03T04:31:29.225Z,99775.63
2023-12-03T04:34:00.109Z,99778.23
2023-12-03T04:36:32.002Z,99778.11
2023-12-03T04:39:02.660Z,99779.59
2023-12-03T04:41:36.747Z,99778.91
2023-12-03T04:44:07.520Z,99778.14
2023-12-03T04:46:41.520Z,99780.81
2023-12-03T04:49:12.174Z,99782.01
2023-12-03T04:51:41.720Z,99786.75
2023-12-03T04:54:11.855Z,99791.80
2023-12-03T04:56:42.955Z,99798.96
2023-12-03T04:59:13.513Z,99800.98
2023-12-03T05:01:43.739Z,99799.09
2023-12-03T05:04:17.716Z,99799.21
2023-12-03T05:06:54.384Z,99801.21
2023-12-03T05:09:52.325Z,99801.79
2023-12-03T05:12:23.899Z,99803.55
2023-12-03T05:14:54.920Z,99801.27
2023-12-03T05:17:27.319Z,99802.23
2023-12-03T05:19:58.018Z,99804.64
2023-12-03T05:22:30.138Z,99806.25
2023-12-03T05:24:59.558Z,99812.50
2023-12-03T05:27:29.233Z,99812.86
2023-12-03T05:30:00.683Z,99816.95
2023-12-03T05:32:31.380Z,99816.48
2023-12-03T05:35:02.209Z,99817.17
2023-12-03T05:37:35.666Z,99821.77
2023-12-03T05:40:06.190Z,99825.88
2023-12-03T05:42:36.609Z,99829.19
2023-12-03T05:45:06.435Z,99830.54
2023-12-03T05:47:36.822Z,99832.50
2023-12-03T05:50:08.346Z,99835.63
2023-12-03T05:52:40.020Z,99839.09
2023-12-03T05:55:09.792Z,99842.66
2023-12-03T05:57:40.616Z,99844.02
2023-12-03T06:00:10.648Z,99847.23
2023-12-03T06:02:41.285Z,99850.27
2023-12-03T06:05:11.519Z,99853.13
2023-12-03T06:07:41.800Z,99857.35
2023-12-03T06:10:12.125Z,99860.43
2023-12-03T06:12:43.218Z,99862.01
2023-12-03T06:15:13.737Z,99864.75
2023-12-03T06:17:43.696Z,99866.17
2023-12-03T06:20:13.431Z,99869.59
2023-12-03T06:22:42.703Z,99870.35
2023-12-03T06:25:12.091Z,99872.29
2023-12-03T06:27:41.770Z,99872.06
2023-12-03T06:30:11.633Z,99873.23
2023-12-03T06:32:41.723Z,99876.13
2023-12-03T06:35:12.936Z,99879.15
2023-12-03T06:37:43.449Z,99881.13
2023-12-03T06:40:13.924Z,99885.03
2023-12-03T06:42:43.149Z,99892.45
2023-12-03T06:45:15.089Z,99892.36
2023-12-03T06:47:44.333Z,99895.19
2023-12-03T06:50:15.459Z,99899.63
2023-12-03T06:52:47.989Z,99899.81
2023-12-03T06:55:17.691Z,99897.39
2023-12-03T06:57:47.027Z,99901.46
2023-12-03T07:00:17.158Z,99905.53
2023-12-03T07:02:49.101Z,99907.70
2023-12-03T07:05:19.036Z,99910.55
2023-12-03T07:07:52.963Z,99914.58
2023-12-03T07:10:48.745Z,99918.90
2023-12-03T07:13:18.621Z,99926.58
2023-12-03T07:15:52.470Z,99930.23
2023-12-03T07:18:23.565Z,99932.17
2023-12-03T07:20:55.515Z,99938.89
2023-12-03T07:23:26.558Z,99943.54
2023-12-03T07:25:56.472Z,99946.46
2023-12-03T07:28:28.960Z,99945.70
2023-12-03T07:30:58.769Z,99947.38
2023-12-03T07:33:29.570Z,99948.25
2023-12-03T07:36:00.774Z,99951.36
2023-12-03T07:38:34.901Z,99956.07
2023-12-03T07:41:10.032Z,99959.53
2023-12-03T07:43:42.007Z,99961.34
2023-12-03T07:46:23.879Z,99964.92
2023-12-03T07:48:54.467Z,99964.84
2023-12-03T07:51:28.157Z,99965.81
2023-12-03T07:54:00.138Z,99966.34
2023-12-03T07:56:41.421Z,99969.73
2023-12-03T07:59:13.480Z,99972.29
2023-12-03T08:01:44.014Z,99973.73
2023-12-03T08:04:19.042Z,99976.36
2023-12-03T08:07:02.472Z,99973.70
2023-12-03T08:09:33.746Z,99980.77
2023-12-03T08:12:11.728Z,99982.13
2023-12-03T08:14:51.231Z,99990.20
2023-12-03T08:17:22.977Z,99990.83
2023-12-03T08:19:52.791Z,99991.94
2023-12-03T08:22:36.300Z,99993.09
2023-12-03T08:25:12.058Z,99996.29
2023-12-03T08:27:45.768Z,99994.38
2023-12-03T08:30:16.557Z,99994.28
2023-12-03T08:32:54.305Z,99998.78
2023-12-03T09:32:51.542Z,100051.17
2023-12-03T09:35:55.535Z,100051.84
2023-12-03T09:38:31.657Z,100057.50
2023-12-03T09:45:26.356Z,100059.30
2023-12-03T09:48:13.722Z,100061.13
2023-12-03T09:50:46.598Z,100059.17
2023-12-03T09:53:19.004Z,100060.91
2023-12-03T09:55:58.372Z,100064.11
2023-12-03T09:58:29.798Z,100068.48
2023-12-03T10:01:06.380Z,100073.13
2023-12-03T10:03:37.431Z,100075.75
2023-12-03T10:06:09.509Z,100079.95
2023-12-03T10:08:45.737Z,100079.30
2023-12-03T10:15:44.321Z,100075.11
2023-12-03T10:18:21.075Z,100084.92
2023-12-03T10:21:19.983Z,100092.41
2023-12-03T10:24:08.376Z,100089.98
2023-12-03T10:26:40.148Z,100083.21
2023-12-03T10:29:11.003Z,100075.21
2023-12-03T10:31:42.054Z,100073.17
2023-12-03T10:34:15.065Z,100071.69
2023-12-03T10:36:46.629Z,100071.67
2023-12-03T10:39:21.111Z,100079.14
2023-12-03T10:41:53.731Z,100081.05
2023-12-03T10:44:27.882Z,100081.72
2023-12-03T10:47:04.989Z,100080.84
2023-12-03T10:49:38.486Z,100076.30
2023-12-03T10:52:09.329Z,100076.80
2023-12-03T10:54:40.106Z,100080.26
2023-12-03T10:57:11.013Z,100080.21
2023-12-03T10:59:44.764Z,100084.15
2023-12-03T11:02:18.189Z,100087.23
2023-12-03T11:05:17.845Z,100091.16
2023-12-03T11:07:48.525Z,100083.88
2023-12-03T11:10:21.154Z,100082.83
2023-12-03T11:12:51.187Z,100085.77
2023-12-03T11:15:24.346Z,100086.23
2023-12-03T11:17:53.857Z,100088.46
2023-12-03T11:20:29.215Z,100090.26
2023-12-03T11:23:40.200Z,100090.21
2023-12-03T11:26:15.676Z,100093.88
2023-12-03T11:28:57.477Z,100103.65
2023-12-03T11:31:30.163Z,100103.48
2023-12-03T11:34:02.450Z,100104.74
2023-12-03T11:36:39.075Z,100105.86
2023-12-03T11:39:09.802Z,100114.00
2023-12-03T11:41:44.681Z,100110.27
2023-12-03T11:44:23.088Z,100113.10
2023-12-03T11:47:11.211Z,100113.55
2023-12-03T11:49:44.587Z,100114.92
2023-12-03T11:52:15.813Z,100116.96
2023-12-03T11:55:09.792Z,100121.52
2023-12-03T11:57:40.675Z,100125.59
2023-12-03T12:00:14.159Z,100129.42
2023-12-03T12:02:44.774Z,100136.29
2023-12-03T12:05:15.726Z,100137.77
2023-12-03T12:08:02.923Z,100140.03
2023-12-03T12:10:36.611Z,100147.45
2023-12-03T12:13:08.156Z,100143.52
2023-12-03T12:15:38.783Z,100149.64
2023-12-03T12:18:12.958Z,100148.59
2023-12-03T12:20:44.552Z,100147.58
2023-12-03T12:23:14.695Z,100150.52
2023-12-03T12:25:48.654Z,100156.58
2023-12-03T12:28:20.456Z,100157.80
2023-12-03T12:30:51.362Z,100162.77
2023-12-03T12:33:21.610Z,100159.79
2023-12-03T12:35:53.678Z,100164.09
2023-12-03T12:38:24.694Z,100173.39
2023-12-03T12:40:58.005Z,100165.42
2023-12-03T12:43:29.005Z,100165.79
2023-12-03T12:46:10.781Z,100162.78
2023-12-03T12:48:43.688Z,100161.29
2023-12-03T12:51:26.020Z,100164.58
2023-12-03T12:54:03.187Z,100166.33
2023-12-03T12:56:34.589Z,100161.77
2023-12-03T12:59:05.509Z,100161.11
2023-12-03T13:01:37.475Z,100156.20
2023-12-03T13:04:10.448Z,100154.53
2023-12-03T13:06:41.092Z,100152.88
2023-12-03T13:09:16.657Z,100151.90
2023-12-03T13:11:50.904Z,100155.64
2023-12-03T13:14:22.312Z,100156.29
2023-12-03T13:16:55.593Z,100156.94
2023-12-03T13:19:26.699Z,100155.84
2023-12-03T13:22:00.756Z,100158.24
2023-12-03T13:24:34.104Z,100157.18
2023-12-03T13:27:04.810Z,100152.72
2023-12-03T13:29:37.885Z,100154.69
2023-12-03T13:32:07.709Z,100152.94
2023-12-03T13:34:39.888Z,100151.70
2023-12-03T13:37:13.206Z,100155.16
2023-12-03T13:39:44.627Z,100154.98
2023-12-03T13:42:15.827Z,100160.52
2023-12-03T13:44:44.978Z,100166.45
2023-12-03T13:48:04.989Z,100170.97
2023-12-03T13:50:41.895Z,100177.55
2023-12-03T13:53:13.638Z,100185.54
2023-12-03T13:55:46.353Z,100192.02
2023-12-03T13:58:42.085Z,100199.95
2023-12-03T14:01:15.010Z,100203.48
2023-12-03T14:03:46.382Z,100210.87
2023-12-03T14:06:17.580Z,100210.77
2023-12-03T14:08:48.901Z,100212.53
2023-12-03T14:11:47.060Z,100211.48
2023-12-03T14:14:22.950Z,100213.86
2023-12-03T14:16:59.658Z,100213.00
2023-12-03T14:19:31.266Z,100217.95
2023-12-03T14:22:01.048Z,100216.80
2023-12-03T14:24:31.808Z,100215.60
2023-12-03T14:27:01.493Z,100219.50
2023-12-03T14:29:30.723Z,100224.27
2023-12-03T14:32:00.161Z,100223.85
2023-12-03T14:34:30.588Z,100221.98
2023-12-03T14:37:01.587Z,100224.02
2023-12-03T14:39:32.574Z,100232.32
2023-12-03T14:42:05.152Z,100236.96
2023-12-03T14:44:36.134Z,100246.41
2023-12-03T14:47:08.638Z,100248.10
2023-12-03T14:49:39.332Z,100254.84
2023-12-03T14:52:10.350Z,100251.40
2023-12-03T14:54:42.432Z,100259.40
2023-12-03T14:57:11.570Z,100255.86
2023-12-03T14:59:40.920Z,100255.66
2023-12-03T15:02:15.524Z,100251.55
2023-12-03T15:04:45.514Z,100257.26
2023-12-03T15:07:18.199Z,100259.64
2023-12-03T15:10:18.201Z,100262.68
2023-12-03T15:12:47.969Z,100263.17
2023-12-03T15:15:20.954Z,100263.81
2023-12-03T15:17:51.797Z,100264.98
2023-12-03T15:20:24.538Z,100265.96
2023-12-03T15:22:54.792Z,100272.75
2023-12-03T15:25:24.840Z,100272.42
2023-12-03T15:27:53.922Z,100274.48
2023-12-03T15:30:25.852Z,100271.66
2023-12-03T15:32:58.095Z,100272.30
2023-12-03T15:35:27.292Z,100272.43
2023-12-03T15:37:56.879Z,100275.48
2023-12-03T15:40:27.133Z,100274.73
2023-12-03T15:42:56.951Z,100277.50
2023-12-03T15:45:27.114Z,100276.69
2023-12-03T15:48:01.099Z,100272.81
2023-12-03T15:50:31.237Z,100274.19
2023-12-03T15:53:04.293Z,100272.97
2023-12-03T15:55:34.505Z,100277.43
2023-12-03T15:58:07.620Z,100273.88
2023-12-03T16:00:48.881Z,100271.46
2023-12-03T16:03:27.806Z,100275.90
2023-12-03T16:05:59.612Z,100274.33
2023-12-03T16:08:41.182Z,100269.94
2023-12-03T16:11:18.762Z,100268.27
2023-12-03T16:13:49.962Z,100275.36
2023-12-03T16:16:20.359Z,100280.95
2023-12-03T16:18:53.928Z,100281.48
2023-12-03T16:21:24.198Z,100284.86
2023-12-03T16:23:56.586Z,100289.24
2023-12-03T16:26:25.810Z,100291.58
2023-12-03T16:28:55.945Z,100291.80
2023-12-03T16:31:32.017Z,100290.52
2023-12-03T16:34:04.206Z,100297.39
2023-12-03T16:36:36.899Z,100298.70
2023-12-03T16:39:10.824Z,100297.20
2023-12-03T16:41:40.773Z,100296.48
2023-12-03T16:44:17.342Z,100303.30
2023-12-03T16:47:02.819Z,100306.69
2023-12-03T16:49:32.535Z,100301.77
2023-12-03T16:52:13.596Z,100296.05
2023-12-03T16:54:45.806Z,100299.09
2023-12-03T16:57:31.355Z,100301.30
2023-12-03T17:00:03.465Z,100299.58
2023-12-03T17:02:35.274Z,100305.80
2023-12-03T17:05:09.567Z,100300.30
2023-12-03T17:07:45.270Z,100297.83
2023-12-03T17:10:40.154Z,100301.20
2023-12-03T17:13:14.103Z,100301.07
2023-12-03T17:15:46.147Z,100301.94
2023-12-03T17:18:18.523Z,100295.05
2023-12-03T17:20:54.435Z,100296.23
2023-12-03T17:23:24.496Z,100300.58
2023-12-03T17:25:56.651Z,100298.10
2023-12-03T17:28:30.421Z,100299.20
2023-12-03T17:31:02.893Z,100304.92
2023-12-03T17:33:34.988Z,100304.31
2023-12-03T17:36:08.675Z,100309.37
2023-12-03T17:38:40.532Z,100310.80
2023-12-03T17:41:12.358Z,100317.63
2023-12-03T17:44:04.416Z,100310.29
2023-12-03T17:46:38.513Z,100311.89
2023-12-03T17:49:10.195Z,100312.48
2023-12-03T17:51:51.230Z,100317.84
2023-12-03T17:54:26.919Z,100321.43
2023-12-03T17:56:58.886Z,100316.41
2023-12-03T17:59:30.807Z,100322.71
2023-12-03T18:02:05.427Z,100319.14
2023-12-03T18:04:42.696Z,100316.73
2023-12-03T18:07:23.204Z,100324.20
2023-12-03T18:09:56.834Z,100318.71
2023-12-03T18:12:30.242Z,100323.48
2023-12-03T18:15:04.464Z,100320.01
2023-12-03T18:17:39.702Z,100325.07
2023-12-03T18:20:12.498Z,100323.95
2023-12-03T18:22:48.065Z,100325.36
2023-12-03T18:25:23.828Z,100326.16
2023-12-03T18:27:56.987Z,100327.89
2023-12-03T18:30:39.423Z,100324.81
2023-12-03T18:33:19.069Z,100331.07
2023-12-03T18:35:52.679Z,100333.89
2023-12-03T18:38:26.817Z,100333.28
2023-12-03T18:41:01.448Z,100336.73
2023-12-03T18:43:33.233Z,100333.67
2023-12-03T18:46:08.707Z,100326.71
2023-12-03T18:48:44.349Z,100331.42
2023-12-03T18:51:16.081Z,100332.55
2023-12-03T18:53:50.841Z,100332.52
2023-12-03T18:56:29.186Z,100329.55
2023-12-03T18:59:02.689Z,100331.11
2023-12-03T19:01:35.552Z,100332.31
2023-12-03T19:04:10.826Z,100335.12
2023-12-03T19:06:49.483Z,100336.82
2023-12-03T19:09:37.606Z,100339.66
2023-12-03T19:12:18.065Z,100336.35
2023-12-03T19:14:56.599Z,100337.88
2023-12-03T19:17:32.960Z,100335.70
2023-12-03T19:20:05.634Z,100336.06
2023-12-03T19:22:37.218Z,100338.13
2023-12-03T19:25:08.571Z,100340.33
2023-12-03T19:27:39.696Z,100340.78
2023-12-03T19:30:11.902Z,100347.34
2023-12-03T19:32:42.379Z,100347.07
2023-12-03T19:35:13.627Z,100350.29
2023-12-03T19:37:45.456Z,100351.29
2023-12-03T19:40:23.173Z,100359.09
2023-12-03T19:42:57.389Z,100358.75
2023-12-03T19:45:29.967Z,100362.36
2023-12-03T19:48:10.247Z,100360.22
2023-12-03T19:50:45.020Z,100363.69
2023-12-03T19:53:17.607Z,100362.41
2023-12-03T19:55:52.121Z,100365.81
2023-12-03T19:58:23.167Z,100367.68
2023-12-03T20:00:56.768Z,100370.55
2023-12-03T20:03:29.922Z,100369.02
2023-12-03T20:06:01.507Z,100373.65
2023-12-03T20:08:33.082Z,100374.86
2023-12-03T20:11:28.652Z,100376.90
2023-12-03T20:13:59.488Z,100379.05
2023-12-03T20:16:31.755Z,100376.88
2023-12-03T20:19:02.191Z,100376.77
2023-12-03T20:21:34.092Z,100375.89
2023-12-03T20:24:09.610Z,100378.90
2023-12-03T20:26:42.334Z,100376.30
2023-12-03T20:29:14.184Z,100378.00
2023-12-03T20:31:46.156Z,100377.58
2023-12-03T20:34:17.674Z,100376.33
2023-12-03T20:36:52.652Z,100380.06
2023-12-03T20:39:23.660Z,100378.91
2023-12-03T20:41:56.742Z,100377.02
2023-12-03T20:44:28.220Z,100378.61
2023-12-03T20:47:01.476Z,100378.81
2023-12-03T20:49:33.682Z,100383.75
2023-12-03T20:52:06.346Z,100383.21
2023-12-03T20:54:40.529Z,100384.64
2023-12-03T20:57:12.859Z,100388.11
2023-12-03T20:59:45.716Z,100392.06
2023-12-03T21:02:17.961Z,100391.78
2023-12-03T21:04:49.910Z,100397.55
2023-12-03T21:07:21.142Z,100396.98
2023-12-03T21:09:59.209Z,100390.54
2023-12-03T21:12:29.956Z,100397.11
2023-12-03T21:15:01.501Z,100399.56
2023-12-03T21:17:32.112Z,100396.08
2023-12-03T21:20:04.457Z,100395.06
2023-12-03T21:22:35.275Z,100395.09
2023-12-03T21:25:06.835Z,100398.94
2023-12-03T21:27:38.243Z,100402.13
2023-12-03T21:30:11.026Z,100404.99
2023-12-03T21:32:43.578Z,100398.88
2023-12-03T21:35:14.039Z,100402.53
2023-12-03T21:37:47.531Z,100406.78
2023-12-03T21:40:18.631Z,100400.41
2023-12-03T21:42:51.529Z,100402.28
2023-12-03T21:45:23.707Z,100398.58
2023-12-03T21:47:53.876Z,100401.48
2023-12-03T21:50:24.460Z,100405.15
2023-12-03T21:52:55.999Z,100405.11
2023-12-03T21:55:26.954Z,100415.73
2023-12-03T21:57:56.897Z,100418.92
2023-12-03T22:00:28.333Z,100414.02
2023-12-03T22:02:58.170Z,100424.09
2023-12-03T22:05:31.145Z,100425.42
2023-12-03T22:08:03.838Z,100425.45
2023-12-03T22:10:36.512Z,100426.77
2023-12-03T22:13:07.616Z,100430.85
2023-12-03T22:15:38.747Z,100432.08
2023-12-03T22:18:09.265Z,100432.22
2023-12-03T22:20:39.358Z,100432.99
2023-12-03T22:23:08.773Z,100436.83
2023-12-03T22:25:40.602Z,100432.89
2023-12-03T22:28:12.140Z,100436.52
2023-12-03T22:30:42.953Z,100442.58
2023-12-03T22:33:15.002Z,100439.67
2023-12-03T22:35:44.360Z,100440.33
2023-12-03T22:38:15.420Z,100440.73
2023-12-03T22:40:45.998Z,100442.60
2023-12-03T22:43:17.658Z,100441.02
2023-12-03T22:45:48.114Z,100440.77
2023-12-03T22:48:19.439Z,100448.95
2023-12-03T22:50:50.339Z,100449.17
2023-12-03T22:53:20.983Z,100450.92
2023-12-03T22:55:51.781Z,100454.35
2023-12-03T22:58:22.168Z,100455.71
2023-12-03T23:00:51.349Z,100452.52
2023-12-03T23:03:23.402Z,100456.55
2023-12-03T23:05:53.441Z,100458.02
2023-12-03T23:08:25.821Z,100454.08
2023-12-03T23:11:00.520Z,100450.89
2023-12-03T23:13:30.361Z,100446.98
2023-12-03T23:16:03.336Z,100450.05
2023-12-03T23:18:34.876Z,100450.69
2023-12-03T23:21:07.171Z,100450.63
2023-12-03T23:23:37.312Z,100449.51
2023-12-03T23:26:09.899Z,100453.19
2023-12-03T23:28:41.189Z,100453.96
2023-12-03T23:31:12.044Z,100460.85
2023-12-03T23:33:42.322Z,100453.37
2023-12-03T23:36:13.911Z,100457.22
2023-12-03T23:38:45.059Z,100456.21
2023-12-03T23:41:15.788Z,100466.71
2023-12-03T23:43:45.157Z,100466.95
2023-12-03T23:46:17.595Z,100469.88
2023-12-03T23:48:48.908Z,100469.01
2023-12-03T23:51:20.741Z,100469.58
2023-12-03T23:53:54.620Z,100471.97
2023-12-03T23:56:28.052Z,100467.69
2023-12-03T23:58:59.720Z,100465.48
